Itzehoe, Germany

12:43 PM CET on November 28, 2014 (GMT +0100)
Itzehoe | Change Station
CLOSE
Current Station
Personal Weather Station
Location: Itzehoe, SCHLESWIG-HOLSTEIN
Elevation: 72 ft
Nearby Weather Stations

Elev 72 ft 53.93 °N, 9.51 °E | Updated 4 seconds ago

Scattered Clouds
Scattered Clouds
34.7 °F
Feels Like 35 °F
N
3.0
Wind Variable Wind from ESE
Gusts 0.0 mph

Today
High -- | Low -- °F
--% Chance of Precip.
Yesterday
High -- | Low -- °F
Precip. -- in
8:12 AM 4:06 PM
Waxing Crescent, 39% visible
Pressure 30.09 in
Visibility 5.6 miles
Clouds Few 2000 ft
Scattered Clouds 10000 ft
Windchill 35 °F
Dew Point 30 °F
Humidity 83%
Rainfall 0.00 in
Snow Depth Not available.
UV 1 out of 12
Pollen Not available.
Air Quality Not available.
Flu Activity Not available.
METAR ETNH 281120Z 11011G21KT 9000 FEW020 SCT100 02/M02 Q1019 BLU+BLU+ TEMPO WHT

More Conditions Fewer Conditions

Pressure 30.09 in
Visibility 5.6 miles
Clouds Few 2000 ft
Scattered Clouds 10000 ft
Windchill 35 °F
Dew Point 30 °F
Humidity 83%
Rainfall 0.00 in
Snow Depth Not available.
UV 1 out of 12
Pollen Not available.
Air Quality Not available.
Flu Activity Not available.
METAR ETNH 281120Z 11011G21KT 9000 FEW020 SCT100 02/M02 Q1019 BLU+BLU+ TEMPO WHT

More Conditions Fewer Conditions

10-Day Weather Forecast

Almanac

Astronomy

Nov. 28, 2014 Rise Set
Actual Time
Civil Twilight
Nautical Twilight
Astronomical Twilight
Moon
Length of Visible Light
Length of Day
Tomorrow will be .
, % of the Moon is Illuminated

Today's Extremes

Country Highs Country Lows

Community

WunderPhotos

Upload Photos

1,774,198 photos uploaded!

WunderBlogs® & News

Nearby

Air Quality

  Air Quality AQ Index Pollutant
Not available.

Snow Depth

Station Depth Elevation

Earthquake Activity

City Distance Mag. Time & Date
Minimum magnitude displayed is 2.5.

Coastal Water Temperatures

Place Temperature

Nearby Weather Stations